Winnipeg, Manitoba

12:38 PM CST on February 12, 2016 (GMT -0600)
Westwood | | Change Station
CLOSE
Current Station
Personal Weather Station
Location: Winnipeg, Manitoba
Elevation: 764 ft
Nearby Weather Stations

Elev 764 ft 49.88 °N, 97.30 °W | Updated 7 seconds ago

Clear
Clear
-0.9 °F
Feels Like -10 °F
N
3.8
Wind Variable Wind from SW
Gusts 6.9 mph

Today is forecast to be nearly the same temperature as yesterday.

Today
High -- | Low -- °F
--% Chance of Precip.
Yesterday
High -- | Low -- °F
Precip. -- in
Pressure 30.77 in
Visibility 15.0 miles
Clouds Clear
Windchill -10 °F
Dew Point Not available.
Humidity Not available.
Rainfall 0.00 in
Snow Depth Not available.
7:45 AM 5:42 PM
Waxing Crescent, 22% visible
METAR CYWG 121800Z 32013KT 15SM SKC M23/M28 A3067 RMK SLP419
Pressure 30.77 in
Visibility 15.0 miles
Clouds Clear
Windchill -10 °F
Dew Point Not available.
Humidity Not available.
Rainfall 0.00 in
Snow Depth Not available.
7:45 AM 5:42 PM
Waxing Crescent, 22% visible
METAR CYWG 121800Z 32013KT 15SM SKC M23/M28 A3067 RMK SLP419
Nowcast |

Extreme cold warning in effect

×

10-Day Weather Forecast

Almanac

Astronomy

Feb. 12, 2016 Rise Set
Actual Time
Civil Twilight
Nautical Twilight
Astronomical Twilight
Moon
Length of Visible Light
Length of Day
Tomorrow will be .
, % of the Moon is Illuminated

Today's Extremes

Country Highs Country Lows

Community

WunderPhotos

Upload Photos

1,892,366 photos uploaded!

WunderBlog® & News

Nearby

Air Quality

  Air Quality AQ Index Pollutant
Not available.

Snow Depth

Station Depth Elevation

Earthquake Activity

City Distance Mag. Time & Date
Minimum magnitude displayed is 2.5.

Coastal Water Temperatures

Place Temperature

Stations

Nearby Weather Stations

Station Location Temp. Windchill Dew Point Humidity Wind Precip. Elev Updated Type
                   

Watches & Warnings

There are currently no watches in effect.